sensor_id;sensor_type;location;lat;lon;timestamp;P1;durP1;ratioP1;P2;durP2;ratioP2
1747;SDS011;871;47.034;15.394;2023-12-28T00:01:08;39.22;;;1.40;;
1747;SDS011;871;47.034;15.394;2023-12-28T00:03:34;39.40;;;1.35;;
1747;SDS011;871;47.034;15.394;2023-12-28T00:06:00;39.22;;;1.35;;
1747;SDS011;871;47.034;15.394;2023-12-28T00:08:26;39.40;;;1.88;;
1747;SDS011;871;47.034;15.394;2023-12-28T00:10:52;39.22;;;1.50;;
1747;SDS011;871;47.034;15.394;2023-12-28T00:13:18;39.10;;;1.40;;
1747;SDS011;871;47.034;15.394;2023-12-28T00:15:44;39.20;;;1.40;;
1747;SDS011;871;47.034;15.394;2023-12-28T00:18:11;39.13;;;1.85;;
1747;SDS011;871;47.034;15.394;2023-12-28T00:20:37;39.00;;;1.40;;
1747;SDS011;871;47.034;15.394;2023-12-28T00:23:03;39.25;;;1.50;;
1747;SDS011;871;47.034;15.394;2023-12-28T00:25:30;39.50;;;1.75;;
1747;SDS011;871;47.034;15.394;2023-12-28T00:27:56;39.40;;;1.70;;
1747;SDS011;871;47.034;15.394;2023-12-28T00:30:22;38.83;;;1.50;;
1747;SDS011;871;47.034;15.394;2023-12-28T00:32:48;41.72;;;2.22;;
1747;SDS011;871;47.034;15.394;2023-12-28T00:35:14;39.83;;;2.72;;
1747;SDS011;871;47.034;15.394;2023-12-28T00:37:41;38.60;;;1.40;;
1747;SDS011;871;47.034;15.394;2023-12-28T00:40:07;38.70;;;1.60;;
1747;SDS011;871;47.034;15.394;2023-12-28T00:42:33;39.00;;;1.70;;
1747;SDS011;871;47.034;15.394;2023-12-28T00:44:59;38.85;;;2.33;;
1747;SDS011;871;47.034;15.394;2023-12-28T00:47:25;38.72;;;1.60;;
1747;SDS011;871;47.034;15.394;2023-12-28T00:49:51;39.45;;;2.95;;
1747;SDS011;871;47.034;15.394;2023-12-28T00:52:17;38.97;;;2.83;;
1747;SDS011;871;47.034;15.394;2023-12-28T00:54:44;38.28;;;1.80;;
1747;SDS011;871;47.034;15.394;2023-12-28T00:57:10;38.05;;;1.63;;
1747;SDS011;871;47.034;15.394;2023-12-28T00:59:36;37.90;;;1.70;;
1747;SDS011;871;47.034;15.394;2023-12-28T01:02:02;38.03;;;1.80;;
1747;SDS011;871;47.034;15.394;2023-12-28T01:04:28;41.55;;;2.33;;
1747;SDS011;871;47.034;15.394;2023-12-28T01:06:54;37.83;;;1.88;;
1747;SDS011;871;47.034;15.394;2023-12-28T01:09:21;38.25;;;2.25;;
1747;SDS011;871;47.034;15.394;2023-12-28T01:11:47;37.50;;;1.80;;
1747;SDS011;871;47.034;15.394;2023-12-28T01:14:13;38.42;;;2.58;;
1747;SDS011;871;47.034;15.394;2023-12-28T01:16:39;37.20;;;1.90;;
1747;SDS011;871;47.034;15.394;2023-12-28T01:19:05;37.05;;;1.83;;
1747;SDS011;871;47.034;15.394;2023-12-28T01:21:32;36.80;;;1.83;;
1747;SDS011;871;47.034;15.394;2023-12-28T01:23:58;36.95;;;2.20;;
1747;SDS011;871;47.034;15.394;2023-12-28T01:26:24;36.83;;;2.50;;
1747;SDS011;871;47.034;15.394;2023-12-28T01:28:50;36.65;;;2.22;;
1747;SDS011;871;47.034;15.394;2023-12-28T01:31:16;36.40;;;1.90;;
1747;SDS011;871;47.034;15.394;2023-12-28T01:33:42;36.22;;;1.83;;
1747;SDS011;871;47.034;15.394;2023-12-28T01:36:18;36.72;;;2.10;;
1747;SDS011;871;47.034;15.394;2023-12-28T01:38:44;36.35;;;1.95;;
1747;SDS011;871;47.034;15.394;2023-12-28T01:41:10;36.35;;;1.90;;
1747;SDS011;871;47.034;15.394;2023-12-28T01:43:37;36.45;;;2.00;;
1747;SDS011;871;47.034;15.394;2023-12-28T01:46:04;37.05;;;2.95;;
1747;SDS011;871;47.034;15.394;2023-12-28T01:48:30;36.92;;;2.15;;
1747;SDS011;871;47.034;15.394;2023-12-28T01:50:56;36.67;;;1.90;;
1747;SDS011;871;47.034;15.394;2023-12-28T01:53:24;36.67;;;1.80;;
1747;SDS011;871;47.034;15.394;2023-12-28T01:55:50;36.70;;;1.90;;
1747;SDS011;871;47.034;15.394;2023-12-28T01:58:17;36.72;;;1.90;;
1747;SDS011;871;47.034;15.394;2023-12-28T02:00:43;36.53;;;2.00;;
1747;SDS011;871;47.034;15.394;2023-12-28T02:03:10;36.05;;;2.00;;
1747;SDS011;871;47.034;15.394;2023-12-28T02:05:36;36.22;;;1.90;;
1747;SDS011;871;47.034;15.394;2023-12-28T02:08:02;35.92;;;2.00;;
1747;SDS011;871;47.034;15.394;2023-12-28T02:10:29;36.40;;;2.20;;
1747;SDS011;871;47.034;15.394;2023-12-28T02:12:55;36.15;;;2.17;;
1747;SDS011;871;47.034;15.394;2023-12-28T02:15:21;36.25;;;1.90;;
1747;SDS011;871;47.034;15.394;2023-12-28T02:17:51;37.15;;;3.17;;
1747;SDS011;871;47.034;15.394;2023-12-28T02:20:20;36.70;;;1.80;;
1747;SDS011;871;47.034;15.394;2023-12-28T02:22:46;36.63;;;1.98;;
1747;SDS011;871;47.034;15.394;2023-12-28T02:25:13;37.13;;;2.00;;
1747;SDS011;871;47.034;15.394;2023-12-28T02:27:43;37.13;;;2.10;;
1747;SDS011;871;47.034;15.394;2023-12-28T02:30:11;36.78;;;1.90;;
1747;SDS011;871;47.034;15.394;2023-12-28T02:37:58;37.55;;;1.83;;
1747;SDS011;871;47.034;15.394;2023-12-28T02:40:25;37.05;;;2.30;;
1747;SDS011;871;47.034;15.394;2023-12-28T02:42:52;37.25;;;2.42;;
1747;SDS011;871;47.034;15.394;2023-12-28T02:45:19;37.35;;;2.80;;
1747;SDS011;871;47.034;15.394;2023-12-28T02:47:45;37.15;;;2.05;;
1747;SDS011;871;47.034;15.394;2023-12-28T02:50:12;37.13;;;1.88;;
1747;SDS011;871;47.034;15.394;2023-12-28T02:52:38;37.17;;;1.83;;
1747;SDS011;871;47.034;15.394;2023-12-28T02:55:04;37.20;;;1.90;;
1747;SDS011;871;47.034;15.394;2023-12-28T02:57:30;36.95;;;2.00;;
1747;SDS011;871;47.034;15.394;2023-12-28T02:59:56;37.03;;;2.00;;
1747;SDS011;871;47.034;15.394;2023-12-28T03:02:26;37.55;;;3.10;;
1747;SDS011;871;47.034;15.394;2023-12-28T03:04:52;37.25;;;2.50;;
1747;SDS011;871;47.034;15.394;2023-12-28T03:07:18;38.10;;;3.00;;
1747;SDS011;871;47.034;15.394;2023-12-28T03:09:44;37.15;;;2.70;;
1747;SDS011;871;47.034;15.394;2023-12-28T03:12:10;36.90;;;2.17;;
1747;SDS011;871;47.034;15.394;2023-12-28T03:14:36;36.80;;;2.00;;
1747;SDS011;871;47.034;15.394;2023-12-28T03:17:02;36.83;;;1.90;;
1747;SDS011;871;47.034;15.394;2023-12-28T03:19:28;37.05;;;2.30;;
1747;SDS011;871;47.034;15.394;2023-12-28T03:21:54;36.65;;;1.90;;
1747;SDS011;871;47.034;15.394;2023-12-28T03:24:20;36.63;;;1.90;;
1747;SDS011;871;47.034;15.394;2023-12-28T03:26:46;36.63;;;2.00;;
1747;SDS011;871;47.034;15.394;2023-12-28T03:29:12;36.63;;;1.90;;
1747;SDS011;871;47.034;15.394;2023-12-28T03:31:39;36.38;;;2.00;;
1747;SDS011;871;47.034;15.394;2023-12-28T03:34:05;36.40;;;1.90;;
1747;SDS011;871;47.034;15.394;2023-12-28T03:36:31;36.72;;;2.17;;
1747;SDS011;871;47.034;15.394;2023-12-28T03:38:58;36.90;;;1.90;;
1747;SDS011;871;47.034;15.394;2023-12-28T03:41:24;36.72;;;1.90;;
1747;SDS011;871;47.034;15.394;2023-12-28T03:43:50;36.63;;;1.90;;
1747;SDS011;871;47.034;15.394;2023-12-28T03:46:16;36.85;;;1.90;;
1747;SDS011;871;47.034;15.394;2023-12-28T03:48:42;38.80;;;2.70;;
1747;SDS011;871;47.034;15.394;2023-12-28T03:51:08;36.92;;;2.10;;
1747;SDS011;871;47.034;15.394;2023-12-28T03:53:39;36.70;;;1.90;;
1747;SDS011;871;47.034;15.394;2023-12-28T03:56:05;36.83;;;1.80;;
1747;SDS011;871;47.034;15.394;2023-12-28T03:58:31;37.33;;;1.90;;
1747;SDS011;871;47.034;15.394;2023-12-28T04:00:57;37.20;;;2.00;;
1747;SDS011;871;47.034;15.394;2023-12-28T04:03:23;37.10;;;1.95;;
1747;SDS011;871;47.034;15.394;2023-12-28T04:05:50;37.15;;;2.00;;
1747;SDS011;871;47.034;15.394;2023-12-28T04:08:16;37.72;;;2.90;;
1747;SDS011;871;47.034;15.394;2023-12-28T04:10:42;36.97;;;1.90;;
1747;SDS011;871;47.034;15.394;2023-12-28T04:13:08;36.83;;;2.00;;
1747;SDS011;871;47.034;15.394;2023-12-28T04:15:34;37.05;;;1.90;;
1747;SDS011;871;47.034;15.394;2023-12-28T04:18:00;37.10;;;2.05;;
1747;SDS011;871;47.034;15.394;2023-12-28T04:20:26;37.08;;;2.00;;
1747;SDS011;871;47.034;15.394;2023-12-28T04:22:52;37.22;;;2.00;;
1747;SDS011;871;47.034;15.394;2023-12-28T04:25:18;37.15;;;1.80;;
1747;SDS011;871;47.034;15.394;2023-12-28T04:27:46;37.13;;;1.88;;
1747;SDS011;871;47.034;15.394;2023-12-28T04:30:12;37.00;;;2.00;;
1747;SDS011;871;47.034;15.394;2023-12-28T04:32:38;37.08;;;2.00;;
1747;SDS011;871;47.034;15.394;2023-12-28T04:35:04;37.10;;;1.85;;
1747;SDS011;871;47.034;15.394;2023-12-28T04:37:31;37.40;;;1.90;;
1747;SDS011;871;47.034;15.394;2023-12-28T04:39:58;38.35;;;2.65;;
1747;SDS011;871;47.034;15.394;2023-12-28T04:42:24;38.10;;;2.45;;
1747;SDS011;871;47.034;15.394;2023-12-28T04:44:50;38.33;;;1.90;;
1747;SDS011;871;47.034;15.394;2023-12-28T04:47:16;38.03;;;1.85;;
1747;SDS011;871;47.034;15.394;2023-12-28T04:49:43;39.85;;;4.45;;
1747;SDS011;871;47.034;15.394;2023-12-28T04:52:09;38.20;;;1.80;;
1747;SDS011;871;47.034;15.394;2023-12-28T04:54:35;38.00;;;1.85;;
1747;SDS011;871;47.034;15.394;2023-12-28T04:57:01;38.33;;;1.90;;
1747;SDS011;871;47.034;15.394;2023-12-28T04:59:27;38.42;;;1.90;;
1747;SDS011;871;47.034;15.394;2023-12-28T05:01:53;38.13;;;1.80;;
1747;SDS011;871;47.034;15.394;2023-12-28T05:04:19;38.15;;;2.15;;
1747;SDS011;871;47.034;15.394;2023-12-28T05:06:45;38.22;;;2.10;;
1747;SDS011;871;47.034;15.394;2023-12-28T05:09:11;38.10;;;1.77;;
1747;SDS011;871;47.034;15.394;2023-12-28T05:11:37;38.85;;;2.45;;
1747;SDS011;871;47.034;15.394;2023-12-28T05:14:03;38.35;;;1.90;;
1747;SDS011;871;47.034;15.394;2023-12-28T05:16:30;38.45;;;2.03;;
1747;SDS011;871;47.034;15.394;2023-12-28T05:18:56;38.22;;;1.70;;
1747;SDS011;871;47.034;15.394;2023-12-28T05:21:22;38.42;;;1.70;;
1747;SDS011;871;47.034;15.394;2023-12-28T05:23:49;39.95;;;3.10;;
1747;SDS011;871;47.034;15.394;2023-12-28T05:26:15;38.33;;;1.70;;
1747;SDS011;871;47.034;15.394;2023-12-28T05:28:41;38.60;;;1.90;;
1747;SDS011;871;47.034;15.394;2023-12-28T05:31:07;38.63;;;1.70;;
1747;SDS011;871;47.034;15.394;2023-12-28T05:33:33;39.13;;;2.50;;
1747;SDS011;871;47.034;15.394;2023-12-28T05:35:59;38.90;;;2.00;;
1747;SDS011;871;47.034;15.394;2023-12-28T05:38:25;39.13;;;2.70;;
1747;SDS011;871;47.034;15.394;2023-12-28T05:40:52;38.83;;;1.90;;
1747;SDS011;871;47.034;15.394;2023-12-28T05:43:18;39.25;;;2.33;;
1747;SDS011;871;47.034;15.394;2023-12-28T05:45:45;38.50;;;1.70;;
1747;SDS011;871;47.034;15.394;2023-12-28T05:48:11;38.40;;;1.70;;
1747;SDS011;871;47.034;15.394;2023-12-28T05:50:38;38.30;;;1.60;;
1747;SDS011;871;47.034;15.394;2023-12-28T05:53:05;39.15;;;2.53;;
1747;SDS011;871;47.034;15.394;2023-12-28T05:55:31;39.10;;;2.97;;
1747;SDS011;871;47.034;15.394;2023-12-28T05:57:57;38.55;;;2.22;;
1747;SDS011;871;47.034;15.394;2023-12-28T06:00:23;38.80;;;1.80;;
1747;SDS011;871;47.034;15.394;2023-12-28T06:02:49;38.53;;;1.70;;
1747;SDS011;871;47.034;15.394;2023-12-28T06:05:16;38.72;;;1.85;;
1747;SDS011;871;47.034;15.394;2023-12-28T06:07:43;38.92;;;1.95;;
1747;SDS011;871;47.034;15.394;2023-12-28T06:10:09;38.90;;;1.77;;
1747;SDS011;871;47.034;15.394;2023-12-28T06:12:35;39.55;;;2.22;;
1747;SDS011;871;47.034;15.394;2023-12-28T06:15:01;39.42;;;2.35;;
1747;SDS011;871;47.034;15.394;2023-12-28T06:17:28;40.58;;;3.90;;
1747;SDS011;871;47.034;15.394;2023-12-28T06:19:54;39.13;;;2.05;;
1747;SDS011;871;47.034;15.394;2023-12-28T06:22:20;39.33;;;1.98;;
1747;SDS011;871;47.034;15.394;2023-12-28T06:24:46;39.20;;;1.70;;
1747;SDS011;871;47.034;15.394;2023-12-28T06:27:12;39.47;;;1.65;;
1747;SDS011;871;47.034;15.394;2023-12-28T06:29:38;39.50;;;1.75;;
1747;SDS011;871;47.034;15.394;2023-12-28T06:32:05;41.33;;;3.83;;
1747;SDS011;871;47.034;15.394;2023-12-28T06:34:31;39.47;;;1.70;;
1747;SDS011;871;47.034;15.394;2023-12-28T06:36:57;39.58;;;1.70;;
1747;SDS011;871;47.034;15.394;2023-12-28T06:39:23;39.65;;;2.33;;
1747;SDS011;871;47.034;15.394;2023-12-28T06:41:49;39.20;;;1.70;;
1747;SDS011;871;47.034;15.394;2023-12-28T06:44:15;39.40;;;1.60;;
1747;SDS011;871;47.034;15.394;2023-12-28T06:46:41;39.20;;;1.80;;
1747;SDS011;871;47.034;15.394;2023-12-28T06:49:07;39.42;;;1.80;;
1747;SDS011;871;47.034;15.394;2023-12-28T06:51:33;39.22;;;1.70;;
1747;SDS011;871;47.034;15.394;2023-12-28T06:53:59;39.10;;;1.60;;
1747;SDS011;871;47.034;15.394;2023-12-28T06:56:26;39.03;;;1.60;;
1747;SDS011;871;47.034;15.394;2023-12-28T06:58:52;40.60;;;2.75;;
1747;SDS011;871;47.034;15.394;2023-12-28T07:01:18;38.88;;;1.60;;
1747;SDS011;871;47.034;15.394;2023-12-28T07:03:44;39.05;;;2.38;;
1747;SDS011;871;47.034;15.394;2023-12-28T07:06:10;38.70;;;1.80;;
1747;SDS011;871;47.034;15.394;2023-12-28T07:08:36;38.75;;;2.35;;
1747;SDS011;871;47.034;15.394;2023-12-28T07:11:02;38.80;;;1.90;;
1747;SDS011;871;47.034;15.394;2023-12-28T07:13:28;38.45;;;1.95;;
1747;SDS011;871;47.034;15.394;2023-12-28T07:15:54;38.42;;;1.60;;
1747;SDS011;871;47.034;15.394;2023-12-28T07:18:20;38.50;;;1.60;;
1747;SDS011;871;47.034;15.394;2023-12-28T07:20:47;39.15;;;3.15;;
1747;SDS011;871;47.034;15.394;2023-12-28T07:23:13;38.45;;;1.70;;
1747;SDS011;871;47.034;15.394;2023-12-28T07:25:40;38.50;;;1.80;;
1747;SDS011;871;47.034;15.394;2023-12-28T07:28:06;38.95;;;2.13;;
1747;SDS011;871;47.034;15.394;2023-12-28T07:30:32;38.97;;;2.08;;
1747;SDS011;871;47.034;15.394;2023-12-28T07:32:58;38.78;;;1.70;;
1747;SDS011;871;47.034;15.394;2023-12-28T07:35:24;38.60;;;1.60;;
1747;SDS011;871;47.034;15.394;2023-12-28T07:37:50;38.83;;;1.90;;
1747;SDS011;871;47.034;15.394;2023-12-28T07:40:16;38.72;;;1.80;;
1747;SDS011;871;47.034;15.394;2023-12-28T07:42:42;38.90;;;1.85;;
1747;SDS011;871;47.034;15.394;2023-12-28T07:45:08;39.75;;;2.28;;
1747;SDS011;871;47.034;15.394;2023-12-28T07:47:34;38.85;;;1.70;;
1747;SDS011;871;47.034;15.394;2023-12-28T07:50:00;39.33;;;2.30;;
1747;SDS011;871;47.034;15.394;2023-12-28T07:52:27;39.35;;;2.50;;
1747;SDS011;871;47.034;15.394;2023-12-28T07:54:53;38.92;;;1.58;;
1747;SDS011;871;47.034;15.394;2023-12-28T07:57:20;39.10;;;1.50;;
1747;SDS011;871;47.034;15.394;2023-12-28T07:59:46;39.13;;;1.60;;
1747;SDS011;871;47.034;15.394;2023-12-28T08:02:12;39.50;;;1.70;;
1747;SDS011;871;47.034;15.394;2023-12-28T08:04:42;39.70;;;1.83;;
1747;SDS011;871;47.034;15.394;2023-12-28T08:07:08;40.05;;;2.13;;
1747;SDS011;871;47.034;15.394;2023-12-28T08:09:34;39.40;;;1.60;;
1747;SDS011;871;47.034;15.394;2023-12-28T08:12:00;39.75;;;2.67;;
1747;SDS011;871;47.034;15.394;2023-12-28T08:14:27;40.25;;;2.20;;
1747;SDS011;871;47.034;15.394;2023-12-28T08:16:54;39.33;;;1.60;;
1747;SDS011;871;47.034;15.394;2023-12-28T08:19:20;40.75;;;3.85;;
1747;SDS011;871;47.034;15.394;2023-12-28T08:21:46;39.42;;;1.70;;
1747;SDS011;871;47.034;15.394;2023-12-28T08:24:12;39.47;;;1.65;;
1747;SDS011;871;47.034;15.394;2023-12-28T08:26:38;39.35;;;1.40;;
1747;SDS011;871;47.034;15.394;2023-12-28T08:29:04;39.30;;;1.40;;
1747;SDS011;871;47.034;15.394;2023-12-28T08:31:31;39.30;;;1.42;;
1747;SDS011;871;47.034;15.394;2023-12-28T08:33:57;39.20;;;1.83;;
1747;SDS011;871;47.034;15.394;2023-12-28T08:36:23;39.53;;;1.80;;
1747;SDS011;871;47.034;15.394;2023-12-28T08:38:49;39.42;;;1.52;;
1747;SDS011;871;47.034;15.394;2023-12-28T08:41:21;39.95;;;2.10;;
1747;SDS011;871;47.034;15.394;2023-12-28T08:43:51;39.72;;;1.50;;
1747;SDS011;871;47.034;15.394;2023-12-28T08:46:19;40.33;;;2.35;;
1747;SDS011;871;47.034;15.394;2023-12-28T08:48:45;40.00;;;1.42;;
1747;SDS011;871;47.034;15.394;2023-12-28T08:51:12;39.85;;;1.65;;
1747;SDS011;871;47.034;15.394;2023-12-28T08:53:40;39.53;;;1.60;;
1747;SDS011;871;47.034;15.394;2023-12-28T08:56:21;39.65;;;1.90;;
1747;SDS011;871;47.034;15.394;2023-12-28T08:58:48;39.55;;;2.17;;
1747;SDS011;871;47.034;15.394;2023-12-28T09:01:19;39.20;;;1.70;;
1747;SDS011;871;47.034;15.394;2023-12-28T09:03:50;41.10;;;2.88;;
1747;SDS011;871;47.034;15.394;2023-12-28T09:06:17;39.58;;;1.75;;
1747;SDS011;871;47.034;15.394;2023-12-28T09:08:43;39.70;;;1.60;;
1747;SDS011;871;47.034;15.394;2023-12-28T09:11:10;40.85;;;3.15;;
1747;SDS011;871;47.034;15.394;2023-12-28T09:13:37;39.67;;;1.40;;
1747;SDS011;871;47.034;15.394;2023-12-28T09:16:03;40.15;;;1.85;;
1747;SDS011;871;47.034;15.394;2023-12-28T09:18:29;40.20;;;1.50;;
1747;SDS011;871;47.034;15.394;2023-12-28T09:20:55;40.45;;;1.55;;
1747;SDS011;871;47.034;15.394;2023-12-28T09:23:21;40.75;;;2.35;;
1747;SDS011;871;47.034;15.394;2023-12-28T09:25:47;40.40;;;1.55;;
1747;SDS011;871;47.034;15.394;2023-12-28T09:28:17;40.22;;;2.08;;
1747;SDS011;871;47.034;15.394;2023-12-28T09:30:43;39.75;;;1.60;;
1747;SDS011;871;47.034;15.394;2023-12-28T09:33:09;40.00;;;1.40;;
1747;SDS011;871;47.034;15.394;2023-12-28T09:35:35;42.95;;;2.58;;
1747;SDS011;871;47.034;15.394;2023-12-28T09:38:01;40.25;;;2.00;;
1747;SDS011;871;47.034;15.394;2023-12-28T09:40:27;40.38;;;1.45;;
1747;SDS011;871;47.034;15.394;2023-12-28T09:43:01;40.15;;;1.30;;
1747;SDS011;871;47.034;15.394;2023-12-28T09:45:29;40.60;;;1.30;;
1747;SDS011;871;47.034;15.394;2023-12-28T09:47:55;40.65;;;1.52;;
1747;SDS011;871;47.034;15.394;2023-12-28T09:50:21;40.75;;;1.65;;
1747;SDS011;871;47.034;15.394;2023-12-28T09:52:51;40.67;;;1.50;;
1747;SDS011;871;47.034;15.394;2023-12-28T09:55:17;40.75;;;1.58;;
1747;SDS011;871;47.034;15.394;2023-12-28T09:57:43;40.75;;;1.58;;
1747;SDS011;871;47.034;15.394;2023-12-28T10:00:10;40.72;;;1.50;;
1747;SDS011;871;47.034;15.394;2023-12-28T10:02:37;40.92;;;1.70;;
1747;SDS011;871;47.034;15.394;2023-12-28T10:05:05;40.80;;;1.40;;
1747;SDS011;871;47.034;15.394;2023-12-28T10:07:31;40.88;;;1.77;;
1747;SDS011;871;47.034;15.394;2023-12-28T10:09:57;40.72;;;1.40;;
1747;SDS011;871;47.034;15.394;2023-12-28T10:12:23;40.80;;;1.70;;
1747;SDS011;871;47.034;15.394;2023-12-28T10:14:52;40.70;;;1.75;;
1747;SDS011;871;47.034;15.394;2023-12-28T10:17:19;41.25;;;1.65;;
1747;SDS011;871;47.034;15.394;2023-12-28T10:19:45;41.35;;;1.40;;
1747;SDS011;871;47.034;15.394;2023-12-28T10:22:13;41.17;;;1.40;;
1747;SDS011;871;47.034;15.394;2023-12-28T10:24:45;42.55;;;2.25;;
1747;SDS011;871;47.034;15.394;2023-12-28T10:27:13;41.50;;;1.60;;
1747;SDS011;871;47.034;15.394;2023-12-28T10:29:39;41.45;;;1.48;;
1747;SDS011;871;47.034;15.394;2023-12-28T10:32:05;41.80;;;1.58;;
1747;SDS011;871;47.034;15.394;2023-12-28T10:34:31;43.40;;;3.05;;
1747;SDS011;871;47.034;15.394;2023-12-28T10:36:58;42.60;;;2.60;;
1747;SDS011;871;47.034;15.394;2023-12-28T10:39:25;41.57;;;1.30;;
1747;SDS011;871;47.034;15.394;2023-12-28T10:41:51;41.70;;;1.83;;
1747;SDS011;871;47.034;15.394;2023-12-28T10:44:21;41.67;;;1.70;;
1747;SDS011;871;47.034;15.394;2023-12-28T10:46:49;41.70;;;1.67;;
1747;SDS011;871;47.034;15.394;2023-12-28T10:49:16;41.97;;;2.00;;
1747;SDS011;871;47.034;15.394;2023-12-28T10:51:43;41.83;;;1.87;;
1747;SDS011;871;47.034;15.394;2023-12-28T10:54:14;41.67;;;1.40;;
1747;SDS011;871;47.034;15.394;2023-12-28T10:56:47;41.73;;;1.50;;
1747;SDS011;871;47.034;15.394;2023-12-28T11:01:46;41.70;;;1.37;;
1747;SDS011;871;47.034;15.394;2023-12-28T11:04:23;41.83;;;1.30;;
1747;SDS011;871;47.034;15.394;2023-12-28T11:06:50;41.60;;;1.53;;
1747;SDS011;871;47.034;15.394;2023-12-28T11:09:17;41.77;;;1.70;;
1747;SDS011;871;47.034;15.394;2023-12-28T11:11:44;42.47;;;2.00;;
1747;SDS011;871;47.034;15.394;2023-12-28T11:14:11;42.37;;;2.30;;
1747;SDS011;871;47.034;15.394;2023-12-28T11:16:38;41.87;;;1.50;;
1747;SDS011;871;47.034;15.394;2023-12-28T11:19:08;42.13;;;1.97;;
1747;SDS011;871;47.034;15.394;2023-12-28T11:21:35;42.17;;;1.70;;
1747;SDS011;871;47.034;15.394;2023-12-28T11:24:01;42.00;;;1.50;;
1747;SDS011;871;47.034;15.394;2023-12-28T11:26:27;42.43;;;2.03;;
1747;SDS011;871;47.034;15.394;2023-12-28T11:29:03;42.20;;;1.83;;
1747;SDS011;871;47.034;15.394;2023-12-28T11:31:32;42.17;;;1.80;;
1747;SDS011;871;47.034;15.394;2023-12-28T11:34:05;41.80;;;1.30;;
1747;SDS011;871;47.034;15.394;2023-12-28T11:36:34;41.87;;;1.43;;
1747;SDS011;871;47.034;15.394;2023-12-28T11:39:05;41.70;;;1.40;;
1747;SDS011;871;47.034;15.394;2023-12-28T11:41:32;43.00;;;2.60;;
1747;SDS011;871;47.034;15.394;2023-12-28T11:44:01;41.57;;;1.30;;
1747;SDS011;871;47.034;15.394;2023-12-28T11:46:28;41.87;;;1.83;;
1747;SDS011;871;47.034;15.394;2023-12-28T11:49:07;41.50;;;1.30;;
1747;SDS011;871;47.034;15.394;2023-12-28T11:51:34;41.87;;;1.47;;
1747;SDS011;871;47.034;15.394;2023-12-28T11:54:02;42.13;;;1.90;;
1747;SDS011;871;47.034;15.394;2023-12-28T11:56:29;41.60;;;1.30;;
1747;SDS011;871;47.034;15.394;2023-12-28T11:58:55;41.83;;;1.83;;
1747;SDS011;871;47.034;15.394;2023-12-28T12:01:21;41.77;;;2.00;;
1747;SDS011;871;47.034;15.394;2023-12-28T12:03:47;41.60;;;1.20;;
1747;SDS011;871;47.034;15.394;2023-12-28T12:06:14;41.63;;;1.37;;
1747;SDS011;871;47.034;15.394;2023-12-28T12:08:40;41.50;;;1.40;;
1747;SDS011;871;47.034;15.394;2023-12-28T12:11:06;44.07;;;2.50;;
1747;SDS011;871;47.034;15.394;2023-12-28T12:13:32;41.57;;;1.50;;
1747;SDS011;871;47.034;15.394;2023-12-28T12:15:59;42.30;;;2.10;;
1747;SDS011;871;47.034;15.394;2023-12-28T12:18:30;42.90;;;2.70;;
1747;SDS011;871;47.034;15.394;2023-12-28T12:20:56;41.67;;;1.50;;
1747;SDS011;871;47.034;15.394;2023-12-28T12:23:23;41.40;;;1.43;;
1747;SDS011;871;47.034;15.394;2023-12-28T12:25:49;41.67;;;1.40;;
1747;SDS011;871;47.034;15.394;2023-12-28T12:28:15;41.60;;;1.83;;
1747;SDS011;871;47.034;15.394;2023-12-28T12:30:48;42.27;;;1.67;;
1747;SDS011;871;47.034;15.394;2023-12-28T12:33:16;41.73;;;1.53;;
1747;SDS011;871;47.034;15.394;2023-12-28T12:35:42;41.40;;;1.20;;
1747;SDS011;871;47.034;15.394;2023-12-28T12:38:08;41.40;;;1.43;;
1747;SDS011;871;47.034;15.394;2023-12-28T12:40:34;41.77;;;1.80;;
1747;SDS011;871;47.034;15.394;2023-12-28T12:43:00;41.60;;;1.67;;
1747;SDS011;871;47.034;15.394;2023-12-28T12:45:26;41.50;;;1.50;;
1747;SDS011;871;47.034;15.394;2023-12-28T12:47:52;41.70;;;1.60;;
1747;SDS011;871;47.034;15.394;2023-12-28T12:50:18;41.57;;;1.90;;
1747;SDS011;871;47.034;15.394;2023-12-28T12:52:46;41.50;;;1.60;;
1747;SDS011;871;47.034;15.394;2023-12-28T12:55:13;41.97;;;2.10;;
1747;SDS011;871;47.034;15.394;2023-12-28T12:57:39;42.80;;;2.07;;
1747;SDS011;871;47.034;15.394;2023-12-28T13:00:06;42.30;;;2.27;;
1747;SDS011;871;47.034;15.394;2023-12-28T13:02:34;48.30;;;2.50;;
1747;SDS011;871;47.034;15.394;2023-12-28T13:05:01;41.73;;;1.63;;
1747;SDS011;871;47.034;15.394;2023-12-28T13:07:29;41.60;;;1.60;;
1747;SDS011;871;47.034;15.394;2023-12-28T13:09:55;41.97;;;1.67;;
1747;SDS011;871;47.034;15.394;2023-12-28T13:12:21;41.60;;;1.37;;
1747;SDS011;871;47.034;15.394;2023-12-28T13:14:47;41.60;;;1.40;;
1747;SDS011;871;47.034;15.394;2023-12-28T13:17:13;41.63;;;1.57;;
1747;SDS011;871;47.034;15.394;2023-12-28T13:19:39;41.73;;;1.50;;
1747;SDS011;871;47.034;15.394;2023-12-28T13:22:05;41.57;;;1.60;;
1747;SDS011;871;47.034;15.394;2023-12-28T13:24:31;41.37;;;1.20;;
1747;SDS011;871;47.034;15.394;2023-12-28T13:26:57;41.50;;;1.53;;
1747;SDS011;871;47.034;15.394;2023-12-28T13:29:23;41.37;;;1.30;;
1747;SDS011;871;47.034;15.394;2023-12-28T13:31:49;41.30;;;1.40;;
1747;SDS011;871;47.034;15.394;2023-12-28T13:34:16;41.60;;;1.70;;
1747;SDS011;871;47.034;15.394;2023-12-28T13:36:44;42.00;;;1.93;;
1747;SDS011;871;47.034;15.394;2023-12-28T13:39:10;41.60;;;1.67;;
1747;SDS011;871;47.034;15.394;2023-12-28T13:41:39;41.57;;;1.50;;
1747;SDS011;871;47.034;15.394;2023-12-28T13:44:06;41.30;;;1.17;;
1747;SDS011;871;47.034;15.394;2023-12-28T13:46:37;41.10;;;1.53;;
1747;SDS011;871;47.034;15.394;2023-12-28T13:49:03;41.57;;;1.77;;
1747;SDS011;871;47.034;15.394;2023-12-28T13:51:32;41.53;;;1.40;;
1747;SDS011;871;47.034;15.394;2023-12-28T13:54:00;41.40;;;1.70;;
1747;SDS011;871;47.034;15.394;2023-12-28T13:56:26;41.57;;;1.40;;
1747;SDS011;871;47.034;15.394;2023-12-28T13:58:52;41.77;;;1.73;;
1747;SDS011;871;47.034;15.394;2023-12-28T14:01:18;41.40;;;1.30;;
1747;SDS011;871;47.034;15.394;2023-12-28T14:03:44;41.87;;;1.70;;
1747;SDS011;871;47.034;15.394;2023-12-28T14:06:13;41.33;;;1.60;;
1747;SDS011;871;47.034;15.394;2023-12-28T14:08:39;41.73;;;1.70;;
1747;SDS011;871;47.034;15.394;2023-12-28T14:11:05;41.50;;;1.77;;
1747;SDS011;871;47.034;15.394;2023-12-28T14:13:31;41.57;;;1.87;;
1747;SDS011;871;47.034;15.394;2023-12-28T14:15:59;41.47;;;1.77;;
1747;SDS011;871;47.034;15.394;2023-12-28T14:18:25;41.40;;;1.23;;
1747;SDS011;871;47.034;15.394;2023-12-28T14:20:51;41.97;;;1.50;;
1747;SDS011;871;47.034;15.394;2023-12-28T14:23:17;41.93;;;2.10;;
1747;SDS011;871;47.034;15.394;2023-12-28T14:25:44;41.27;;;1.37;;
1747;SDS011;871;47.034;15.394;2023-12-28T14:28:16;41.40;;;1.30;;
1747;SDS011;871;47.034;15.394;2023-12-28T14:30:42;41.37;;;1.67;;
1747;SDS011;871;47.034;15.394;2023-12-28T14:33:10;41.30;;;1.23;;
1747;SDS011;871;47.034;15.394;2023-12-28T14:35:37;41.30;;;1.33;;
1747;SDS011;871;47.034;15.394;2023-12-28T14:38:04;41.67;;;1.77;;
1747;SDS011;871;47.034;15.394;2023-12-28T14:40:32;41.33;;;1.53;;
1747;SDS011;871;47.034;15.394;2023-12-28T14:42:59;41.23;;;1.20;;
1747;SDS011;871;47.034;15.394;2023-12-28T14:45:25;41.40;;;1.23;;
1747;SDS011;871;47.034;15.394;2023-12-28T14:47:51;42.10;;;2.13;;
1747;SDS011;871;47.034;15.394;2023-12-28T14:50:17;41.40;;;1.33;;
1747;SDS011;871;47.034;15.394;2023-12-28T14:52:43;41.57;;;1.73;;
1747;SDS011;871;47.034;15.394;2023-12-28T14:55:09;41.47;;;1.47;;
1747;SDS011;871;47.034;15.394;2023-12-28T14:57:35;41.47;;;1.40;;
1747;SDS011;871;47.034;15.394;2023-12-28T15:00:01;41.43;;;1.43;;
1747;SDS011;871;47.034;15.394;2023-12-28T15:02:29;41.83;;;2.03;;
1747;SDS011;871;47.034;15.394;2023-12-28T15:04:55;41.50;;;1.70;;